Time;durP1;ratioP1;P1;durP2;ratioP2;P2;SDS_P1;SDS_P2;PMS_P1;PMS_P2;Temp;Humidity;BMP_temperature;BMP_pressure;BME280_temperature;BME280_humidity;BME280_pressure;Samples;Min_cycle;Max_cycle;Signal;HPM_P1;HPM_P2
2023/10/19 00:06:44;;;;;;;1999.90;999.90;;;;;;;10.58;100.00;96268.72;18601449;31;20065;-58
2023/10/19 00:27:16;;;;;;;1999.90;999.90;;;;;;;10.68;100.00;96244.16;18612299;31;19958;-58
2023/10/19 00:37:25;;;;;;;1999.90;999.90;;;;;;;10.69;100.00;96229.56;18619961;31;20052;-58
2023/10/19 00:47:38;;;;;;;1999.90;999.90;;;;;;;10.74;100.00;96242.16;18626377;31;20053;-58
2023/10/19 00:57:48;;;;;;;1999.90;999.90;;;;;;;10.73;100.00;96235.94;18610923;31;20048;-57
2023/10/19 01:07:57;;;;;;;1999.90;999.90;;;;;;;10.74;100.00;96215.13;18625485;31;20471;-58
2023/10/19 01:18:01;;;;;;;1999.90;999.90;;;;;;;10.73;100.00;96214.31;18625181;31;20103;-58
2023/10/19 01:28:10;;;;;;;1999.90;999.90;;;;;;;10.79;100.00;96210.38;18618070;31;20090;-58
2023/10/19 01:38:12;;;;;;;1999.90;999.90;;;;;;;10.80;100.00;96194.97;18622208;31;20384;-58
2023/10/19 01:48:16;;;;;;;1999.90;999.90;;;;;;;10.76;100.00;96181.25;18636993;31;20103;-58
2023/10/19 01:58:18;;;;;;;1999.90;999.90;;;;;;;10.71;100.00;96173.28;18621777;31;20120;-58
2023/10/19 02:08:25;;;;;;;1999.90;999.90;;;;;;;10.68;100.00;96173.88;18635759;31;20083;-58
2023/10/19 02:18:27;;;;;;;1999.90;999.90;;;;;;;10.72;100.00;96161.34;18635277;31;20052;-58
2023/10/19 02:28:51;;;;;;;1999.90;999.90;;;;;;;10.72;100.00;96160.56;18620243;31;20380;-58
2023/10/19 02:38:53;;;;;;;1999.90;999.90;;;;;;;10.75;100.00;96139.09;18633681;31;20060;-58
2023/10/19 02:48:55;;;;;;;1999.90;999.90;;;;;;;10.72;100.00;96136.25;18632312;31;20104;-58
2023/10/19 02:59:08;;;;;;;1999.90;999.90;;;;;;;10.72;100.00;96120.81;18618507;31;20057;-58
2023/10/19 03:09:23;;;;;;;1999.90;999.90;;;;;;;10.73;100.00;96110.78;18631929;31;20045;-58
2023/10/19 03:19:26;;;;;;;1999.90;999.90;;;;;;;10.64;100.00;96092.63;18598704;31;20447;-58
2023/10/19 03:29:38;;;;;;;1999.90;999.90;;;;;;;10.73;100.00;96081.06;18630603;31;20052;-58
2023/10/19 03:39:42;;;;;;;1999.90;999.90;;;;;;;10.76;100.00;96085.88;18629856;31;20071;-58
2023/10/19 03:49:46;;;;;;;1999.90;999.90;;;;;;;10.82;100.00;96071.09;18614509;31;20053;-58
2023/10/19 03:59:50;;;;;;;1999.90;999.90;;;;;;;10.81;100.00;96061.37;18628784;31;20048;-58
2023/10/19 04:30:22;;;;;;;1999.90;999.90;;;;;;;10.79;100.00;96023.84;18627042;31;20436;-58
2023/10/19 04:40:24;;;;;;;1999.90;999.90;;;;;;;10.79;100.00;96007.63;18626394;31;20088;-58
2023/10/19 04:50:26;;;;;;;1999.90;999.90;;;;;;;10.84;100.00;96002.09;18611667;31;20080;-58
2023/10/19 05:00:29;;;;;;;1999.90;999.90;;;;;;;10.83;100.00;96000.47;18625749;31;20115;-58
2023/10/19 05:10:34;;;;;;;1999.90;999.90;;;;;;;10.85;100.00;95995.56;18624758;31;20052;-58
2023/10/19 05:20:40;;;;;;;1999.90;999.90;;;;;;;10.91;100.00;95969.19;18625070;31;20056;-58
2023/10/19 05:30:42;;;;;;;1999.90;999.90;;;;;;;10.85;100.00;95951.50;18624718;31;20466;-58
2023/10/19 05:40:45;;;;;;;1999.90;999.90;;;;;;;10.82;100.00;95958.31;18610119;31;20450;-58
2023/10/19 05:50:49;;;;;;;1999.90;999.90;;;;;;;10.77;100.00;95954.97;18609774;31;20140;-58
2023/10/19 06:00:52;;;;;;;1999.90;999.90;;;;;;;10.68;100.00;95947.63;18623725;31;20060;-58
2023/10/19 06:10:55;;;;;;;1999.90;999.90;;;;;;;10.73;100.00;95956.72;18609513;31;20049;-58
2023/10/19 06:20:58;;;;;;;1999.90;999.90;;;;;;;10.91;100.00;95936.75;18615164;31;20381;-58
2023/10/19 06:31:01;;;;;;;1999.90;999.90;;;;;;;10.96;100.00;95930.37;18620222;31;20057;-58
2023/10/19 06:41:14;;;;;;;1999.90;999.90;;;;;;;11.10;100.00;95941.88;18619465;31;20044;-58
2023/10/19 06:51:17;;;;;;;1999.90;999.90;;;;;;;11.23;100.00;95952.88;18612417;31;20099;-58
2023/10/19 07:01:25;;;;;;;1999.90;999.90;;;;;;;11.33;100.00;95956.06;18632609;31;20418;-58
2023/10/19 07:11:28;;;;;;;1999.90;999.90;;;;;;;11.46;100.00;95962.44;18618395;31;20424;-58
2023/10/19 07:21:35;;;;;;;1999.90;999.90;;;;;;;11.60;100.00;95953.37;18631282;31;20060;-58
2023/10/19 07:31:38;;;;;;;1999.90;999.90;;;;;;;11.65;100.00;95980.28;18630493;31;20045;-58
2023/10/19 07:41:41;;;;;;;1999.90;999.90;;;;;;;11.83;100.00;95957.50;18629755;31;20053;-58
2023/10/19 07:51:47;;;;;;;1999.90;999.90;;;;;;;11.87;100.00;95958.44;18629207;31;20100;-58
2023/10/19 08:01:50;;;;;;;1999.90;999.90;;;;;;;12.09;100.00;95966.75;18628805;31;20079;-58
2023/10/19 08:11:55;;;;;;;1999.90;999.90;;;;;;;12.16;100.00;95948.06;18628426;31;20072;-58
2023/10/19 08:21:58;;;;;;;1999.90;999.90;;;;;;;12.17;100.00;95939.63;18628067;31;20087;-58
2023/10/19 08:32:01;;;;;;;1999.90;999.90;;;;;;;12.22;100.00;95951.41;18626913;31;20068;-58
2023/10/19 08:42:06;;;;;;;1999.90;999.90;;;;;;;12.17;100.00;95950.47;18625288;31;20067;-59
2023/10/19 08:52:09;;;;;;;1999.90;999.90;;;;;;;12.22;100.00;95941.34;18626393;31;20064;-58
2023/10/19 09:02:12;;;;;;;1999.90;999.90;;;;;;;12.26;100.00;95925.25;18625728;31;20444;-58
2023/10/19 09:12:16;;;;;;;1999.90;999.90;;;;;;;12.35;100.00;95896.22;18611387;31;20060;-58
2023/10/19 09:22:19;;;;;;;1999.90;999.90;;;;;;;12.42;100.00;95885.66;18625035;31;20094;-58
2023/10/19 09:32:22;;;;;;;1999.90;999.90;;;;;;;12.53;100.00;95880.66;18618146;31;20488;-58
2023/10/19 09:42:28;;;;;;;1999.90;999.90;;;;;;;12.63;100.00;95857.81;18609832;31;20491;-59
2023/10/19 09:52:33;;;;;;;1999.90;999.90;;;;;;;12.74;100.00;95848.16;18613212;31;20056;-58
2023/10/19 10:02:36;;;;;;;1999.90;999.90;;;;;;;12.91;100.00;95839.13;18636415;31;20484;-58
2023/10/19 10:12:39;;;;;;;1999.90;999.90;;;;;;;13.11;100.00;95853.81;18635739;31;20078;-58
2023/10/19 10:22:43;;;;;;;1999.90;999.90;;;;;;;13.42;100.00;95832.87;18620465;31;20397;-58
2023/10/19 10:32:48;;;;;;;1999.90;999.90;;;;;;;13.44;100.00;95823.22;18634496;31;20052;-58
2023/10/19 10:43:05;;;;;;;1999.90;999.90;;;;;;;13.37;100.00;95809.41;18633957;31;20048;-58
2023/10/19 10:53:11;;;;;;;1999.90;999.90;;;;;;;13.47;100.00;95806.28;18633126;31;20065;-59
2023/10/19 11:03:15;;;;;;;1999.90;999.90;;;;;;;13.56;100.00;95817.06;18632001;31;20361;-58
2023/10/19 11:13:23;;;;;;;1999.90;999.90;;;;;;;13.74;100.00;95814.94;18632071;31;20091;-59
2023/10/19 11:23:36;;;;;;;1999.90;999.90;;;;;;;13.79;100.00;95770.50;18631289;31;20116;-58
2023/10/19 11:33:44;;;;;;;1999.90;999.90;;;;;;;13.65;100.00;95817.78;18630752;31;20068;-58
2023/10/19 11:43:48;;;;;;;1999.90;999.90;;;;;;;13.71;100.00;95799.34;18630119;31;20037;-58
2023/10/19 11:53:51;;;;;;;;;;;;;;;13.72;100.00;95793.56;18629756;31;20048;-58
2023/10/19 12:03:54;;;;;;;1999.90;999.90;;;;;;;13.75;100.00;95821.97;18614898;31;19944;-59
2023/10/19 12:13:59;;;;;;;1999.90;999.90;;;;;;;13.84;100.00;95781.13;18607395;31;20100;-58
2023/10/19 12:24:04;;;;;;;1999.90;999.90;;;;;;;13.92;100.00;95784.88;18614041;31;20048;-58
2023/10/19 12:34:07;;;;;;;1999.90;999.90;;;;;;;14.08;100.00;95745.03;18626907;31;20130;-59
2023/10/19 12:44:12;;;;;;;1999.90;999.90;;;;;;;14.15;100.00;95728.97;18612206;31;20103;-58
2023/10/19 12:54:15;;;;;;;1999.90;999.90;;;;;;;14.19;100.00;95731.78;18612310;31;20057;-58
2023/10/19 13:04:23;;;;;;;1999.90;999.90;;;;;;;14.35;100.00;95734.63;18625653;31;20044;-59
2023/10/19 13:14:27;;;;;;;1999.90;999.90;;;;;;;14.58;100.00;95724.81;18611062;31;20078;-58
2023/10/19 13:24:31;;;;;;;;;;;;;;;15.32;100.00;95706.62;18625287;31;20373;-58
2023/10/19 13:34:38;;;;;;;1999.90;999.90;;;;;;;15.46;100.00;95665.38;18623839;31;20346;-58
2023/10/19 13:44:42;;;;;;;1999.90;999.90;;;;;;;15.39;100.00;95633.34;18637274;31;20071;-59
2023/10/19 13:54:44;;;;;;;1999.90;999.90;;;;;;;15.58;100.00;95605.34;18622722;31;20470;-59
2023/10/19 14:04:47;;;;;;;1999.90;999.90;;;;;;;15.46;100.00;95629.97;18636019;31;20064;-58
2023/10/19 14:14:50;;;;;;;1999.90;999.90;;;;;;;15.55;100.00;95615.06;18635576;31;20093;-58
2023/10/19 14:24:53;;;;;;;1999.90;999.90;;;;;;;15.65;100.00;95574.78;18634879;31;20048;-58
2023/10/19 14:34:57;;;;;;;1999.90;999.90;;;;;;;15.45;100.00;95536.59;18634537;31;20069;-59
2023/10/19 14:45:00;;;;;;;1999.90;999.90;;;;;;;15.23;100.00;95521.69;18632817;31;20040;-58
2023/10/19 14:55:03;;;;;;;1999.90;999.90;;;;;;;15.02;100.00;95513.78;18612103;31;20057;-58
2023/10/19 15:05:06;;;;;;;1999.90;999.90;;;;;;;14.94;100.00;95506.59;18632949;31;20060;-58
2023/10/19 15:15:10;;;;;;;1999.90;999.90;;;;;;;14.92;100.00;95477.03;18631789;31;20086;-58
2023/10/19 15:25:18;;;;;;;1999.90;999.90;;;;;;;14.84;100.00;95481.53;18631182;31;20099;-58
2023/10/19 15:35:22;;;;;;;1999.90;999.90;;;;;;;14.78;100.00;95465.81;18631212;31;20063;-58
2023/10/19 15:45:25;;;;;;;1999.90;999.90;;;;;;;14.67;100.00;95462.81;18615492;31;20123;-58
2023/10/19 15:55:28;;;;;;;1999.90;999.90;;;;;;;14.58;100.00;95463.75;18629067;31;20394;-58
2023/10/19 16:05:30;;;;;;;1999.90;999.90;;;;;;;14.57;100.00;95464.91;18628448;31;20071;-59
2023/10/19 16:15:34;;;;;;;1999.90;999.90;;;;;;;14.46;100.00;95469.28;18613599;31;20056;-58
2023/10/19 16:25:37;;;;;;;;;;;;;;;14.40;100.00;95459.78;18613810;31;20436;-58
2023/10/19 16:35:40;;;;;;;1999.90;999.90;;;;;;;14.34;100.00;95466.63;18613466;31;20011;-58
2023/10/19 16:45:43;;;;;;;1999.90;999.90;;;;;;;14.21;100.00;95455.81;18611942;31;20052;-58
2023/10/19 16:55:45;;;;;;;1999.90;999.90;;;;;;;14.16;100.00;95423.47;18626235;31;20433;-58
2023/10/19 17:05:48;;;;;;;1999.90;999.90;;;;;;;14.10;100.00;95465.63;18625242;31;20082;-58
2023/10/19 17:15:51;;;;;;;1999.90;999.90;;;;;;;14.10;100.00;95495.53;18625387;31;20116;-59
2023/10/19 17:25:54;;;;;;;1999.90;999.90;;;;;;;14.06;100.00;95475.59;18624824;31;20059;-58
2023/10/19 17:35:57;;;;;;;1999.90;999.90;;;;;;;14.01;100.00;95486.72;18624662;31;20116;-58
2023/10/19 17:46:01;;;;;;;1999.90;999.90;;;;;;;14.01;100.00;95478.56;18557506;32;20085;-58
2023/10/19 17:56:06;;;;;;;1999.90;999.90;;;;;;;13.95;100.00;95460.91;18558838;31;20057;-58
2023/10/19 18:06:10;;;;;;;1999.90;999.90;;;;;;;13.89;100.00;95441.38;18558885;32;20060;-58
2023/10/19 18:16:14;;;;;;;1999.90;999.90;;;;;;;13.88;100.00;95378.12;18564679;31;20061;-58
2023/10/19 18:26:17;;;;;;;1999.90;999.90;;;;;;;13.75;100.00;95354.88;18569911;31;20053;-58
2023/10/19 18:36:20;;;;;;;1999.90;999.90;;;;;;;13.79;100.00;95325.09;18567565;32;20092;-58
2023/10/19 18:46:24;;;;;;;1999.90;999.90;;;;;;;13.77;100.00;95317.28;18617174;31;20136;-58
2023/10/19 18:56:27;;;;;;;1999.90;999.90;;;;;;;13.69;100.00;95308.16;18633357;31;20064;-58
2023/10/19 19:06:30;;;;;;;1999.90;999.90;;;;;;;13.63;100.00;95327.78;18618354;31;20092;-58
2023/10/19 19:16:33;;;;;;;1999.90;999.90;;;;;;;13.59;100.00;95294.31;18631810;31;20060;-58
2023/10/19 19:26:37;;;;;;;1999.90;999.90;;;;;;;13.72;100.00;95288.44;18624056;31;20048;-58
2023/10/19 19:36:40;;;;;;;1999.90;999.90;;;;;;;13.64;100.00;95278.53;18630749;31;20064;-58
2023/10/19 19:46:43;;;;;;;1999.90;999.90;;;;;;;13.58;100.00;95246.56;18629735;31;20095;-58
2023/10/19 19:56:45;;;;;;;1999.90;999.90;;;;;;;13.46;100.00;95253.66;18629433;31;20072;-58
2023/10/19 20:06:48;;;;;;;1999.90;999.90;;;;;;;13.45;100.00;95275.72;18601270;31;20098;-58
2023/10/19 20:16:52;;;;;;;1999.90;999.90;;;;;;;13.39;100.00;95242.63;18614101;31;20048;-58
2023/10/19 20:26:55;;;;;;;1999.90;999.90;;;;;;;13.39;100.00;95215.47;18628050;31;20553;-58
2023/10/19 20:36:58;;;;;;;1999.90;999.90;;;;;;;13.34;100.00;95211.06;18626499;31;20398;-58
2023/10/19 20:47:03;;;;;;;1999.90;999.90;;;;;;;13.34;100.00;95196.72;18560106;32;20049;-58
2023/10/19 20:57:06;;;;;;;1999.90;999.90;;;;;;;13.32;100.00;95182.69;18561060;31;20053;-58
2023/10/19 21:07:09;;;;;;;1999.90;999.90;;;;;;;13.16;100.00;95179.97;18560327;31;20084;-58
2023/10/19 21:17:12;;;;;;;1999.90;999.90;;;;;;;13.23;100.00;95163.88;18559880;31;20371;-58
2023/10/19 21:27:15;;;;;;;1999.90;999.90;;;;;;;13.20;100.00;95168.06;18558797;32;20057;-58
2023/10/19 21:37:19;;;;;;;1999.90;999.90;;;;;;;13.23;100.00;95144.88;18559681;31;20097;-58
2023/10/19 21:47:22;;;;;;;1999.90;999.90;;;;;;;13.19;100.00;95152.13;18546895;32;20048;-58
2023/10/19 21:57:28;;;;;;;1999.90;999.90;;;;;;;13.14;100.00;95136.91;18571564;31;20159;-58
2023/10/19 22:07:30;;;;;;;1999.90;999.90;;;;;;;13.09;100.00;95123.59;18570969;32;20079;-58
2023/10/19 22:17:33;;;;;;;1999.90;999.90;;;;;;;13.16;100.00;95133.84;18570048;31;20061;-58
2023/10/19 22:27:36;;;;;;;1999.90;999.90;;;;;;;13.11;100.00;95120.53;18569129;32;20064;-58
2023/10/19 22:37:39;;;;;;;1999.90;999.90;;;;;;;13.08;100.00;95097.59;18569245;31;20406;-58
2023/10/19 22:47:42;;;;;;;1999.90;999.90;;;;;;;13.06;100.00;95056.50;18632218;31;20056;-58
2023/10/19 22:57:50;;;;;;;1999.90;999.90;;;;;;;13.25;100.00;95009.66;18618461;31;20444;-58
2023/10/19 23:07:55;;;;;;;1999.90;999.90;;;;;;;13.31;100.00;94972.19;18626324;31;20086;-58
2023/10/19 23:17:58;;;;;;;1999.90;999.90;;;;;;;13.31;100.00;94972.97;18631902;31;20100;-58
2023/10/19 23:28:02;;;;;;;1999.90;999.90;;;;;;;13.28;100.00;94951.16;18616863;31;20146;-58
2023/10/19 23:38:08;;;;;;;1999.90;999.90;;;;;;;13.23;100.00;94969.28;18630339;31;20115;-58
2023/10/19 23:48:13;;;;;;;1999.90;999.90;;;;;;;13.21;100.00;94946.41;18630106;31;20121;-58
2023/10/19 23:58:15;;;;;;;1999.90;999.90;;;;;;;13.19;100.00;94929.66;18615876;31;20095;-58
